sensor_id;sensor_type;location;lat;lon;timestamp;P1;durP1;ratioP1;P2;durP2;ratioP2
19456;SDS011;9867;48.094;11.478;2022-12-28T00:01:24;2.60;;;2.40;;
19456;SDS011;9867;48.094;11.478;2022-12-28T00:03:51;2.60;;;2.40;;
19456;SDS011;9867;48.094;11.478;2022-12-28T00:06:20;2.70;;;2.50;;
19456;SDS011;9867;48.094;11.478;2022-12-28T00:08:48;2.60;;;2.40;;
19456;SDS011;9867;48.094;11.478;2022-12-28T00:11:17;2.40;;;2.30;;
19456;SDS011;9867;48.094;11.478;2022-12-28T00:13:57;2.50;;;2.30;;
19456;SDS011;9867;48.094;11.478;2022-12-28T00:16:26;2.40;;;2.10;;
19456;SDS011;9867;48.094;11.478;2022-12-28T00:18:54;2.40;;;2.20;;
19456;SDS011;9867;48.094;11.478;2022-12-28T00:21:21;2.30;;;2.10;;
19456;SDS011;9867;48.094;11.478;2022-12-28T00:23:48;2.40;;;2.00;;
19456;SDS011;9867;48.094;11.478;2022-12-28T00:26:15;2.20;;;2.10;;
19456;SDS011;9867;48.094;11.478;2022-12-28T00:28:42;2.40;;;2.23;;
19456;SDS011;9867;48.094;11.478;2022-12-28T00:31:10;2.60;;;2.40;;
19456;SDS011;9867;48.094;11.478;2022-12-28T00:33:37;2.13;;;2.03;;
19456;SDS011;9867;48.094;11.478;2022-12-28T00:36:03;2.23;;;2.10;;
19456;SDS011;9867;48.094;11.478;2022-12-28T00:38:33;2.10;;;2.00;;
19456;SDS011;9867;48.094;11.478;2022-12-28T00:41:02;2.27;;;2.07;;
19456;SDS011;9867;48.094;11.478;2022-12-28T00:43:29;2.93;;;2.20;;
19456;SDS011;9867;48.094;11.478;2022-12-28T00:45:57;2.40;;;2.27;;
19456;SDS011;9867;48.094;11.478;2022-12-28T00:48:25;1.90;;;1.80;;
19456;SDS011;9867;48.094;11.478;2022-12-28T00:50:52;2.37;;;2.00;;
19456;SDS011;9867;48.094;11.478;2022-12-28T00:53:25;2.50;;;2.17;;
19456;SDS011;9867;48.094;11.478;2022-12-28T00:55:51;2.53;;;2.33;;
19456;SDS011;9867;48.094;11.478;2022-12-28T00:58:18;2.27;;;2.07;;
19456;SDS011;9867;48.094;11.478;2022-12-28T01:00:44;2.00;;;1.90;;
19456;SDS011;9867;48.094;11.478;2022-12-28T01:03:11;2.33;;;2.10;;
19456;SDS011;9867;48.094;11.478;2022-12-28T01:05:38;1.90;;;1.80;;
19456;SDS011;9867;48.094;11.478;2022-12-28T01:08:06;1.90;;;1.80;;
19456;SDS011;9867;48.094;11.478;2022-12-28T01:10:33;2.30;;;2.10;;
19456;SDS011;9867;48.094;11.478;2022-12-28T01:12:59;2.13;;;2.03;;
19456;SDS011;9867;48.094;11.478;2022-12-28T01:15:26;1.93;;;1.83;;
19456;SDS011;9867;48.094;11.478;2022-12-28T01:17:52;2.00;;;1.90;;
19456;SDS011;9867;48.094;11.478;2022-12-28T01:20:19;2.47;;;1.83;;
19456;SDS011;9867;48.094;11.478;2022-12-28T01:22:46;2.00;;;1.90;;
19456;SDS011;9867;48.094;11.478;2022-12-28T01:25:13;1.77;;;1.67;;
19456;SDS011;9867;48.094;11.478;2022-12-28T01:27:39;1.80;;;1.70;;
19456;SDS011;9867;48.094;11.478;2022-12-28T01:30:06;1.70;;;1.60;;
19456;SDS011;9867;48.094;11.478;2022-12-28T01:32:36;2.03;;;1.90;;
19456;SDS011;9867;48.094;11.478;2022-12-28T01:35:03;1.80;;;1.70;;
19456;SDS011;9867;48.094;11.478;2022-12-28T01:37:32;1.70;;;1.60;;
19456;SDS011;9867;48.094;11.478;2022-12-28T01:40:00;1.93;;;1.83;;
19456;SDS011;9867;48.094;11.478;2022-12-28T01:42:26;1.90;;;1.80;;
19456;SDS011;9867;48.094;11.478;2022-12-28T01:44:53;1.93;;;1.83;;
19456;SDS011;9867;48.094;11.478;2022-12-28T01:47:20;1.73;;;1.63;;
19456;SDS011;9867;48.094;11.478;2022-12-28T01:49:53;1.73;;;1.63;;
19456;SDS011;9867;48.094;11.478;2022-12-28T01:52:28;1.80;;;1.70;;
19456;SDS011;9867;48.094;11.478;2022-12-28T01:54:59;2.47;;;1.97;;
19456;SDS011;9867;48.094;11.478;2022-12-28T01:57:33;2.13;;;1.93;;
19456;SDS011;9867;48.094;11.478;2022-12-28T02:00:05;1.90;;;1.80;;
19456;SDS011;9867;48.094;11.478;2022-12-28T02:02:39;1.97;;;1.87;;
19456;SDS011;9867;48.094;11.478;2022-12-28T02:05:08;1.77;;;1.67;;
19456;SDS011;9867;48.094;11.478;2022-12-28T02:07:37;2.10;;;2.00;;
19456;SDS011;9867;48.094;11.478;2022-12-28T02:10:09;2.07;;;1.60;;
19456;SDS011;9867;48.094;11.478;2022-12-28T02:12:56;1.93;;;1.83;;
19456;SDS011;9867;48.094;11.478;2022-12-28T02:15:26;1.90;;;1.80;;
19456;SDS011;9867;48.094;11.478;2022-12-28T02:17:52;3.60;;;1.60;;
19456;SDS011;9867;48.094;11.478;2022-12-28T02:20:19;1.70;;;1.60;;
19456;SDS011;9867;48.094;11.478;2022-12-28T02:22:54;1.90;;;1.77;;
19456;SDS011;9867;48.094;11.478;2022-12-28T02:28:54;1.60;;;1.50;;
19456;SDS011;9867;48.094;11.478;2022-12-28T02:31:35;1.80;;;1.70;;
19456;SDS011;9867;48.094;11.478;2022-12-28T02:34:11;1.90;;;1.47;;
19456;SDS011;9867;48.094;11.478;2022-12-28T02:36:45;2.80;;;1.70;;
19456;SDS011;9867;48.094;11.478;2022-12-28T02:39:17;1.70;;;1.60;;
19456;SDS011;9867;48.094;11.478;2022-12-28T02:41:47;2.03;;;1.70;;
19456;SDS011;9867;48.094;11.478;2022-12-28T02:44:16;1.70;;;1.60;;
19456;SDS011;9867;48.094;11.478;2022-12-28T02:47:03;1.73;;;1.63;;
19456;SDS011;9867;48.094;11.478;2022-12-28T02:49:48;2.30;;;1.80;;
19456;SDS011;9867;48.094;11.478;2022-12-28T02:52:40;1.83;;;1.73;;
19456;SDS011;9867;48.094;11.478;2022-12-28T02:55:25;1.80;;;1.60;;
19456;SDS011;9867;48.094;11.478;2022-12-28T02:58:31;1.40;;;1.40;;
19456;SDS011;9867;48.094;11.478;2022-12-28T03:01:28;1.53;;;1.43;;
19456;SDS011;9867;48.094;11.478;2022-12-28T03:04:13;1.50;;;1.40;;
19456;SDS011;9867;48.094;11.478;2022-12-28T03:06:45;1.50;;;1.40;;
19456;SDS011;9867;48.094;11.478;2022-12-28T03:09:40;1.60;;;1.50;;
19456;SDS011;9867;48.094;11.478;2022-12-28T03:12:13;1.63;;;1.53;;
19456;SDS011;9867;48.094;11.478;2022-12-28T03:14:45;1.77;;;1.57;;
19456;SDS011;9867;48.094;11.478;2022-12-28T03:17:14;1.80;;;1.70;;
19456;SDS011;9867;48.094;11.478;2022-12-28T03:20:03;1.70;;;1.60;;
19456;SDS011;9867;48.094;11.478;2022-12-28T03:22:51;1.50;;;1.40;;
19456;SDS011;9867;48.094;11.478;2022-12-28T03:25:41;1.27;;;1.23;;
19456;SDS011;9867;48.094;11.478;2022-12-28T03:28:34;1.63;;;1.53;;
19456;SDS011;9867;48.094;11.478;2022-12-28T03:31:23;1.80;;;1.60;;
19456;SDS011;9867;48.094;11.478;2022-12-28T03:33:56;1.77;;;1.60;;
19456;SDS011;9867;48.094;11.478;2022-12-28T03:36:36;1.73;;;1.63;;
19456;SDS011;9867;48.094;11.478;2022-12-28T03:39:13;1.23;;;1.20;;
19456;SDS011;9867;48.094;11.478;2022-12-28T03:41:49;1.60;;;1.50;;
19456;SDS011;9867;48.094;11.478;2022-12-28T03:44:38;1.50;;;1.40;;
19456;SDS011;9867;48.094;11.478;2022-12-28T03:47:08;1.40;;;1.40;;
19456;SDS011;9867;48.094;11.478;2022-12-28T03:49:38;1.50;;;1.40;;
19456;SDS011;9867;48.094;11.478;2022-12-28T03:52:05;1.37;;;1.37;;
19456;SDS011;9867;48.094;11.478;2022-12-28T03:54:33;1.27;;;1.27;;
19456;SDS011;9867;48.094;11.478;2022-12-28T03:57:00;1.50;;;1.40;;
19456;SDS011;9867;48.094;11.478;2022-12-28T03:59:31;1.73;;;1.60;;
19456;SDS011;9867;48.094;11.478;2022-12-28T04:01:59;1.47;;;1.47;;
19456;SDS011;9867;48.094;11.478;2022-12-28T04:04:28;1.40;;;1.30;;
19456;SDS011;9867;48.094;11.478;2022-12-28T04:06:55;1.60;;;1.50;;
19456;SDS011;9867;48.094;11.478;2022-12-28T04:09:21;1.70;;;1.30;;
19456;SDS011;9867;48.094;11.478;2022-12-28T04:11:48;1.27;;;1.20;;
19456;SDS011;9867;48.094;11.478;2022-12-28T04:14:22;1.50;;;1.40;;
19456;SDS011;9867;48.094;11.478;2022-12-28T04:16:48;1.80;;;1.43;;
19456;SDS011;9867;48.094;11.478;2022-12-28T04:19:16;1.40;;;1.30;;
19456;SDS011;9867;48.094;11.478;2022-12-28T04:21:44;1.50;;;1.40;;
19456;SDS011;9867;48.094;11.478;2022-12-28T04:24:11;1.80;;;1.50;;
19456;SDS011;9867;48.094;11.478;2022-12-28T04:26:38;1.60;;;1.50;;
19456;SDS011;9867;48.094;11.478;2022-12-28T04:29:07;1.07;;;1.07;;
19456;SDS011;9867;48.094;11.478;2022-12-28T04:31:52;1.20;;;1.20;;
19456;SDS011;9867;48.094;11.478;2022-12-28T04:34:19;2.53;;;1.50;;
19456;SDS011;9867;48.094;11.478;2022-12-28T04:36:54;1.53;;;1.40;;
19456;SDS011;9867;48.094;11.478;2022-12-28T04:39:22;1.40;;;1.40;;
19456;SDS011;9867;48.094;11.478;2022-12-28T04:41:48;1.73;;;1.30;;
19456;SDS011;9867;48.094;11.478;2022-12-28T04:44:15;1.40;;;1.40;;
19456;SDS011;9867;48.094;11.478;2022-12-28T04:46:41;1.73;;;1.63;;
19456;SDS011;9867;48.094;11.478;2022-12-28T04:49:08;1.70;;;1.60;;
19456;SDS011;9867;48.094;11.478;2022-12-28T04:51:34;1.53;;;1.50;;
19456;SDS011;9867;48.094;11.478;2022-12-28T04:54:01;1.60;;;1.50;;
19456;SDS011;9867;48.094;11.478;2022-12-28T04:56:28;1.47;;;1.37;;
19456;SDS011;9867;48.094;11.478;2022-12-28T04:58:55;1.80;;;1.70;;
19456;SDS011;9867;48.094;11.478;2022-12-28T05:01:22;1.50;;;1.40;;
19456;SDS011;9867;48.094;11.478;2022-12-28T05:03:50;1.40;;;1.40;;
19456;SDS011;9867;48.094;11.478;2022-12-28T05:06:22;1.50;;;1.50;;
19456;SDS011;9867;48.094;11.478;2022-12-28T05:08:50;1.50;;;1.40;;
19456;SDS011;9867;48.094;11.478;2022-12-28T05:11:17;1.73;;;1.63;;
19456;SDS011;9867;48.094;11.478;2022-12-28T05:13:45;1.43;;;1.40;;
19456;SDS011;9867;48.094;11.478;2022-12-28T05:16:13;1.73;;;1.30;;
19456;SDS011;9867;48.094;11.478;2022-12-28T05:18:41;1.50;;;1.40;;
19456;SDS011;9867;48.094;11.478;2022-12-28T05:21:11;1.40;;;1.30;;
19456;SDS011;9867;48.094;11.478;2022-12-28T05:23:39;1.67;;;1.60;;
19456;SDS011;9867;48.094;11.478;2022-12-28T05:26:06;1.27;;;1.27;;
19456;SDS011;9867;48.094;11.478;2022-12-28T05:28:36;1.50;;;1.40;;
19456;SDS011;9867;48.094;11.478;2022-12-28T05:31:04;2.60;;;1.40;;
19456;SDS011;9867;48.094;11.478;2022-12-28T05:33:32;1.20;;;1.13;;
19456;SDS011;9867;48.094;11.478;2022-12-28T05:36:01;1.37;;;1.30;;
19456;SDS011;9867;48.094;11.478;2022-12-28T05:38:28;1.47;;;1.40;;
19456;SDS011;9867;48.094;11.478;2022-12-28T05:40:55;1.50;;;1.40;;
19456;SDS011;9867;48.094;11.478;2022-12-28T05:43:21;1.70;;;1.60;;
19456;SDS011;9867;48.094;11.478;2022-12-28T05:45:48;1.40;;;1.40;;
19456;SDS011;9867;48.094;11.478;2022-12-28T05:48:15;1.53;;;1.53;;
19456;SDS011;9867;48.094;11.478;2022-12-28T05:50:41;1.50;;;1.40;;
19456;SDS011;9867;48.094;11.478;2022-12-28T05:53:08;1.50;;;1.50;;
19456;SDS011;9867;48.094;11.478;2022-12-28T05:55:34;2.00;;;1.70;;
19456;SDS011;9867;48.094;11.478;2022-12-28T05:58:00;1.53;;;1.43;;
19456;SDS011;9867;48.094;11.478;2022-12-28T06:00:27;1.57;;;1.47;;
19456;SDS011;9867;48.094;11.478;2022-12-28T06:02:53;1.50;;;1.40;;
19456;SDS011;9867;48.094;11.478;2022-12-28T06:05:20;1.70;;;1.60;;
19456;SDS011;9867;48.094;11.478;2022-12-28T06:07:47;3.03;;;2.03;;
19456;SDS011;9867;48.094;11.478;2022-12-28T06:10:16;2.57;;;1.97;;
19456;SDS011;9867;48.094;11.478;2022-12-28T06:12:43;2.23;;;2.00;;
19456;SDS011;9867;48.094;11.478;2022-12-28T06:15:09;4.13;;;3.73;;
19456;SDS011;9867;48.094;11.478;2022-12-28T06:17:36;2.30;;;2.10;;
19456;SDS011;9867;48.094;11.478;2022-12-28T06:20:03;2.53;;;2.33;;
19456;SDS011;9867;48.094;11.478;2022-12-28T06:22:30;2.13;;;2.03;;
19456;SDS011;9867;48.094;11.478;2022-12-28T06:24:57;1.90;;;1.80;;
19456;SDS011;9867;48.094;11.478;2022-12-28T06:27:23;1.90;;;1.80;;
19456;SDS011;9867;48.094;11.478;2022-12-28T06:29:50;1.87;;;1.73;;
19456;SDS011;9867;48.094;11.478;2022-12-28T06:32:16;3.97;;;1.80;;
19456;SDS011;9867;48.094;11.478;2022-12-28T06:34:42;1.27;;;1.27;;
19456;SDS011;9867;48.094;11.478;2022-12-28T06:37:09;1.60;;;1.50;;
19456;SDS011;9867;48.094;11.478;2022-12-28T06:39:36;1.43;;;1.33;;
19456;SDS011;9867;48.094;11.478;2022-12-28T06:42:02;2.70;;;1.77;;
19456;SDS011;9867;48.094;11.478;2022-12-28T06:44:29;2.00;;;1.90;;
19456;SDS011;9867;48.094;11.478;2022-12-28T06:46:55;2.77;;;2.37;;
19456;SDS011;9867;48.094;11.478;2022-12-28T06:49:22;3.30;;;2.93;;
19456;SDS011;9867;48.094;11.478;2022-12-28T06:51:48;2.20;;;2.10;;
19456;SDS011;9867;48.094;11.478;2022-12-28T06:54:14;1.80;;;1.70;;
19456;SDS011;9867;48.094;11.478;2022-12-28T06:56:42;1.80;;;1.70;;
19456;SDS011;9867;48.094;11.478;2022-12-28T06:59:08;2.07;;;1.67;;
19456;SDS011;9867;48.094;11.478;2022-12-28T07:01:35;1.80;;;1.70;;
19456;SDS011;9867;48.094;11.478;2022-12-28T07:04:04;1.10;;;1.10;;
19456;SDS011;9867;48.094;11.478;2022-12-28T07:06:33;3.77;;;2.37;;
19456;SDS011;9867;48.094;11.478;2022-12-28T07:09:02;1.77;;;1.67;;
19456;SDS011;9867;48.094;11.478;2022-12-28T07:11:29;2.50;;;2.30;;
19456;SDS011;9867;48.094;11.478;2022-12-28T07:13:56;3.90;;;3.60;;
19456;SDS011;9867;48.094;11.478;2022-12-28T07:16:25;2.20;;;2.00;;
19456;SDS011;9867;48.094;11.478;2022-12-28T07:18:53;2.60;;;2.40;;
19456;SDS011;9867;48.094;11.478;2022-12-28T07:21:20;2.20;;;2.10;;
19456;SDS011;9867;48.094;11.478;2022-12-28T07:23:48;2.60;;;2.40;;
19456;SDS011;9867;48.094;11.478;2022-12-28T07:26:17;1.97;;;1.87;;
19456;SDS011;9867;48.094;11.478;2022-12-28T07:28:45;2.47;;;2.27;;
19456;SDS011;9867;48.094;11.478;2022-12-28T07:31:14;2.53;;;2.33;;
19456;SDS011;9867;48.094;11.478;2022-12-28T07:33:43;1.90;;;1.80;;
19456;SDS011;9867;48.094;11.478;2022-12-28T07:36:12;3.37;;;1.90;;
19456;SDS011;9867;48.094;11.478;2022-12-28T07:38:40;1.87;;;1.77;;
19456;SDS011;9867;48.094;11.478;2022-12-28T07:41:08;2.13;;;2.03;;
19456;SDS011;9867;48.094;11.478;2022-12-28T07:43:36;2.30;;;2.10;;
19456;SDS011;9867;48.094;11.478;2022-12-28T07:46:04;2.10;;;2.00;;
19456;SDS011;9867;48.094;11.478;2022-12-28T07:48:33;1.83;;;1.73;;
19456;SDS011;9867;48.094;11.478;2022-12-28T07:51:05;2.03;;;1.90;;
19456;SDS011;9867;48.094;11.478;2022-12-28T07:53:34;2.00;;;1.90;;
19456;SDS011;9867;48.094;11.478;2022-12-28T07:56:01;1.70;;;1.60;;
19456;SDS011;9867;48.094;11.478;2022-12-28T07:58:28;1.97;;;1.87;;
19456;SDS011;9867;48.094;11.478;2022-12-28T08:01:01;1.90;;;1.80;;
19456;SDS011;9867;48.094;11.478;2022-12-28T08:03:28;1.83;;;1.73;;
19456;SDS011;9867;48.094;11.478;2022-12-28T08:06:00;2.00;;;1.80;;
19456;SDS011;9867;48.094;11.478;2022-12-28T08:08:27;1.83;;;1.73;;
19456;SDS011;9867;48.094;11.478;2022-12-28T08:10:54;1.73;;;1.63;;
19456;SDS011;9867;48.094;11.478;2022-12-28T08:13:20;1.93;;;1.80;;
19456;SDS011;9867;48.094;11.478;2022-12-28T08:15:52;2.60;;;1.80;;
19456;SDS011;9867;48.094;11.478;2022-12-28T08:18:19;2.33;;;1.83;;
19456;SDS011;9867;48.094;11.478;2022-12-28T08:20:45;1.90;;;1.80;;
19456;SDS011;9867;48.094;11.478;2022-12-28T08:23:12;2.60;;;2.07;;
19456;SDS011;9867;48.094;11.478;2022-12-28T08:25:39;2.03;;;1.93;;
19456;SDS011;9867;48.094;11.478;2022-12-28T08:28:05;2.20;;;2.10;;
19456;SDS011;9867;48.094;11.478;2022-12-28T08:30:31;2.27;;;2.07;;
19456;SDS011;9867;48.094;11.478;2022-12-28T08:32:58;2.30;;;2.20;;
19456;SDS011;9867;48.094;11.478;2022-12-28T08:35:24;1.90;;;1.80;;
19456;SDS011;9867;48.094;11.478;2022-12-28T08:37:53;1.77;;;1.67;;
19456;SDS011;9867;48.094;11.478;2022-12-28T08:40:20;4.37;;;3.97;;
19456;SDS011;9867;48.094;11.478;2022-12-28T08:42:52;3.83;;;2.40;;
19456;SDS011;9867;48.094;11.478;2022-12-28T08:45:21;2.63;;;2.43;;
19456;SDS011;9867;48.094;11.478;2022-12-28T08:47:48;2.30;;;2.20;;
19456;SDS011;9867;48.094;11.478;2022-12-28T08:50:14;1.97;;;1.87;;
19456;SDS011;9867;48.094;11.478;2022-12-28T08:52:45;2.33;;;2.13;;
19456;SDS011;9867;48.094;11.478;2022-12-28T08:55:12;2.00;;;1.90;;
19456;SDS011;9867;48.094;11.478;2022-12-28T08:57:39;2.57;;;2.37;;
19456;SDS011;9867;48.094;11.478;2022-12-28T09:00:06;3.60;;;2.27;;
19456;SDS011;9867;48.094;11.478;2022-12-28T09:02:33;2.40;;;2.20;;
19456;SDS011;9867;48.094;11.478;2022-12-28T09:05:00;2.20;;;2.10;;
19456;SDS011;9867;48.094;11.478;2022-12-28T09:07:26;2.17;;;2.00;;
19456;SDS011;9867;48.094;11.478;2022-12-28T09:09:53;1.77;;;1.67;;
19456;SDS011;9867;48.094;11.478;2022-12-28T09:12:19;2.00;;;1.90;;
19456;SDS011;9867;48.094;11.478;2022-12-28T09:14:46;2.83;;;1.80;;
19456;SDS011;9867;48.094;11.478;2022-12-28T09:17:13;1.70;;;1.60;;
19456;SDS011;9867;48.094;11.478;2022-12-28T09:19:39;1.80;;;1.70;;
19456;SDS011;9867;48.094;11.478;2022-12-28T09:22:06;1.90;;;1.80;;
19456;SDS011;9867;48.094;11.478;2022-12-28T09:24:32;2.03;;;1.93;;
19456;SDS011;9867;48.094;11.478;2022-12-28T09:26:59;2.77;;;1.83;;
19456;SDS011;9867;48.094;11.478;2022-12-28T09:29:25;2.43;;;1.73;;
19456;SDS011;9867;48.094;11.478;2022-12-28T09:31:53;1.80;;;1.70;;
19456;SDS011;9867;48.094;11.478;2022-12-28T09:34:19;1.73;;;1.60;;
19456;SDS011;9867;48.094;11.478;2022-12-28T09:37:01;2.03;;;1.93;;
19456;SDS011;9867;48.094;11.478;2022-12-28T09:39:28;3.30;;;2.90;;
19456;SDS011;9867;48.094;11.478;2022-12-28T09:41:56;5.47;;;2.80;;
19456;SDS011;9867;48.094;11.478;2022-12-28T09:47:24;2.03;;;1.90;;
19456;SDS011;9867;48.094;11.478;2022-12-28T09:50:00;2.53;;;2.33;;
19456;SDS011;9867;48.094;11.478;2022-12-28T09:52:33;1.93;;;1.50;;
19456;SDS011;9867;48.094;11.478;2022-12-28T09:55:04;1.73;;;1.63;;
19456;SDS011;9867;48.094;11.478;2022-12-28T09:57:36;2.30;;;2.07;;
19456;SDS011;9867;48.094;11.478;2022-12-28T10:00:06;1.50;;;1.40;;
19456;SDS011;9867;48.094;11.478;2022-12-28T10:02:42;1.70;;;1.60;;
19456;SDS011;9867;48.094;11.478;2022-12-28T10:05:13;1.90;;;1.80;;
19456;SDS011;9867;48.094;11.478;2022-12-28T10:07:39;1.87;;;1.77;;
19456;SDS011;9867;48.094;11.478;2022-12-28T10:10:06;2.87;;;2.67;;
19456;SDS011;9867;48.094;11.478;2022-12-28T10:12:32;4.97;;;2.53;;
19456;SDS011;9867;48.094;11.478;2022-12-28T10:14:59;2.47;;;2.27;;
19456;SDS011;9867;48.094;11.478;2022-12-28T10:17:27;2.30;;;2.20;;
19456;SDS011;9867;48.094;11.478;2022-12-28T10:19:56;2.10;;;2.00;;
19456;SDS011;9867;48.094;11.478;2022-12-28T10:22:24;1.80;;;1.53;;
19456;SDS011;9867;48.094;11.478;2022-12-28T10:24:57;2.43;;;1.83;;
19456;SDS011;9867;48.094;11.478;2022-12-28T10:27:23;1.80;;;1.70;;
19456;SDS011;9867;48.094;11.478;2022-12-28T10:29:54;2.77;;;2.43;;
19456;SDS011;9867;48.094;11.478;2022-12-28T10:32:20;1.80;;;1.70;;
19456;SDS011;9867;48.094;11.478;2022-12-28T10:34:57;1.93;;;1.83;;
19456;SDS011;9867;48.094;11.478;2022-12-28T10:37:26;1.40;;;1.40;;
19456;SDS011;9867;48.094;11.478;2022-12-28T10:39:55;1.60;;;1.50;;
19456;SDS011;9867;48.094;11.478;2022-12-28T10:42:25;1.73;;;1.63;;
19456;SDS011;9867;48.094;11.478;2022-12-28T10:44:56;3.07;;;1.47;;
19456;SDS011;9867;48.094;11.478;2022-12-28T10:47:27;2.03;;;1.93;;
19456;SDS011;9867;48.094;11.478;2022-12-28T10:50:02;1.60;;;1.50;;
19456;SDS011;9867;48.094;11.478;2022-12-28T10:52:54;3.37;;;1.53;;
19456;SDS011;9867;48.094;11.478;2022-12-28T10:55:26;1.87;;;1.70;;
19456;SDS011;9867;48.094;11.478;2022-12-28T10:57:54;1.90;;;1.73;;
19456;SDS011;9867;48.094;11.478;2022-12-28T11:00:47;3.03;;;1.70;;
19456;SDS011;9867;48.094;11.478;2022-12-28T11:03:21;1.50;;;1.40;;
19456;SDS011;9867;48.094;11.478;2022-12-28T11:05:51;2.37;;;1.53;;
19456;SDS011;9867;48.094;11.478;2022-12-28T11:08:34;1.90;;;1.33;;
19456;SDS011;9867;48.094;11.478;2022-12-28T11:11:01;2.50;;;1.23;;
19456;SDS011;9867;48.094;11.478;2022-12-28T11:13:27;1.50;;;1.40;;
19456;SDS011;9867;48.094;11.478;2022-12-28T11:15:54;1.30;;;1.20;;
19456;SDS011;9867;48.094;11.478;2022-12-28T11:18:20;1.50;;;1.00;;
19456;SDS011;9867;48.094;11.478;2022-12-28T11:20:47;2.00;;;1.30;;
19456;SDS011;9867;48.094;11.478;2022-12-28T11:23:17;1.30;;;1.20;;
19456;SDS011;9867;48.094;11.478;2022-12-28T11:25:45;0.90;;;0.90;;
19456;SDS011;9867;48.094;11.478;2022-12-28T11:28:13;1.20;;;1.10;;
19456;SDS011;9867;48.094;11.478;2022-12-28T11:30:42;1.13;;;1.00;;
19456;SDS011;9867;48.094;11.478;2022-12-28T11:33:21;2.10;;;1.23;;
19456;SDS011;9867;48.094;11.478;2022-12-28T11:35:51;1.37;;;1.17;;
19456;SDS011;9867;48.094;11.478;2022-12-28T11:38:38;2.77;;;1.30;;
19456;SDS011;9867;48.094;11.478;2022-12-28T11:41:07;2.00;;;1.40;;
19456;SDS011;9867;48.094;11.478;2022-12-28T11:43:36;1.20;;;1.10;;
19456;SDS011;9867;48.094;11.478;2022-12-28T11:46:37;3.03;;;2.73;;
19456;SDS011;9867;48.094;11.478;2022-12-28T11:54:53;1.40;;;1.30;;
19456;SDS011;9867;48.094;11.478;2022-12-28T11:57:33;1.30;;;1.20;;
19456;SDS011;9867;48.094;11.478;2022-12-28T12:03:04;2.80;;;1.17;;
19456;SDS011;9867;48.094;11.478;2022-12-28T12:05:46;1.40;;;1.30;;
19456;SDS011;9867;48.094;11.478;2022-12-28T12:13:58;2.17;;;1.67;;
19456;SDS011;9867;48.094;11.478;2022-12-28T12:16:27;1.00;;;1.00;;
19456;SDS011;9867;48.094;11.478;2022-12-28T12:19:00;2.03;;;1.00;;
19456;SDS011;9867;48.094;11.478;2022-12-28T12:21:32;1.30;;;1.20;;
19456;SDS011;9867;48.094;11.478;2022-12-28T12:24:02;4.07;;;1.20;;
19456;SDS011;9867;48.094;11.478;2022-12-28T12:26:44;0.90;;;0.90;;
19456;SDS011;9867;48.094;11.478;2022-12-28T12:29:16;1.20;;;1.10;;
19456;SDS011;9867;48.094;11.478;2022-12-28T12:31:48;1.20;;;1.10;;
19456;SDS011;9867;48.094;11.478;2022-12-28T12:34:21;1.10;;;0.90;;
19456;SDS011;9867;48.094;11.478;2022-12-28T12:37:04;1.30;;;1.20;;
19456;SDS011;9867;48.094;11.478;2022-12-28T12:40:09;1.30;;;1.20;;
19456;SDS011;9867;48.094;11.478;2022-12-28T12:42:48;1.47;;;1.20;;
19456;SDS011;9867;48.094;11.478;2022-12-28T12:45:31;2.87;;;1.30;;
19456;SDS011;9867;48.094;11.478;2022-12-28T12:48:14;2.30;;;0.97;;
19456;SDS011;9867;48.094;11.478;2022-12-28T12:50:52;1.27;;;0.97;;
19456;SDS011;9867;48.094;11.478;2022-12-28T12:53:34;1.57;;;1.23;;
19456;SDS011;9867;48.094;11.478;2022-12-28T12:56:25;5.20;;;4.20;;
19456;SDS011;9867;48.094;11.478;2022-12-28T12:59:06;4.33;;;3.93;;
19456;SDS011;9867;48.094;11.478;2022-12-28T13:01:45;1.50;;;1.40;;
19456;SDS011;9867;48.094;11.478;2022-12-28T13:04:19;1.40;;;1.30;;
19456;SDS011;9867;48.094;11.478;2022-12-28T13:06:48;1.03;;;0.97;;
19456;SDS011;9867;48.094;11.478;2022-12-28T13:09:20;1.37;;;1.03;;
19456;SDS011;9867;48.094;11.478;2022-12-28T13:11:50;1.43;;;1.13;;
19456;SDS011;9867;48.094;11.478;2022-12-28T13:14:18;1.27;;;1.10;;
19456;SDS011;9867;48.094;11.478;2022-12-28T13:16:50;1.17;;;1.00;;
19456;SDS011;9867;48.094;11.478;2022-12-28T13:19:18;1.57;;;1.10;;
19456;SDS011;9867;48.094;11.478;2022-12-28T13:21:48;1.00;;;1.00;;
19456;SDS011;9867;48.094;11.478;2022-12-28T13:24:19;1.40;;;0.80;;
19456;SDS011;9867;48.094;11.478;2022-12-28T13:26:47;0.90;;;0.90;;
19456;SDS011;9867;48.094;11.478;2022-12-28T13:29:16;1.67;;;1.57;;
19456;SDS011;9867;48.094;11.478;2022-12-28T13:31:45;1.53;;;1.43;;
19456;SDS011;9867;48.094;11.478;2022-12-28T13:34:15;3.13;;;2.83;;
19456;SDS011;9867;48.094;11.478;2022-12-28T13:36:47;2.67;;;1.40;;
19456;SDS011;9867;48.094;11.478;2022-12-28T13:39:16;0.93;;;0.90;;
19456;SDS011;9867;48.094;11.478;2022-12-28T13:41:46;2.10;;;1.30;;
19456;SDS011;9867;48.094;11.478;2022-12-28T13:44:20;1.30;;;1.20;;
19456;SDS011;9867;48.094;11.478;2022-12-28T13:46:59;1.67;;;1.37;;
19456;SDS011;9867;48.094;11.478;2022-12-28T13:49:30;1.30;;;1.20;;
19456;SDS011;9867;48.094;11.478;2022-12-28T13:52:04;1.10;;;1.10;;
19456;SDS011;9867;48.094;11.478;2022-12-28T13:54:32;2.00;;;1.10;;
19456;SDS011;9867;48.094;11.478;2022-12-28T13:56:59;1.03;;;0.97;;
19456;SDS011;9867;48.094;11.478;2022-12-28T13:59:46;1.07;;;0.97;;
19456;SDS011;9867;48.094;11.478;2022-12-28T14:02:15;1.40;;;1.30;;
19456;SDS011;9867;48.094;11.478;2022-12-28T14:04:45;1.40;;;0.90;;
19456;SDS011;9867;48.094;11.478;2022-12-28T14:07:19;1.97;;;0.80;;
19456;SDS011;9867;48.094;11.478;2022-12-28T14:09:49;1.07;;;1.07;;
19456;SDS011;9867;48.094;11.478;2022-12-28T14:12:16;2.17;;;2.00;;
19456;SDS011;9867;48.094;11.478;2022-12-28T14:14:45;2.63;;;2.43;;
19456;SDS011;9867;48.094;11.478;2022-12-28T14:17:16;3.40;;;3.10;;
19456;SDS011;9867;48.094;11.478;2022-12-28T14:19:43;4.37;;;2.20;;
19456;SDS011;9867;48.094;11.478;2022-12-28T14:22:23;4.43;;;2.60;;
19456;SDS011;9867;48.094;11.478;2022-12-28T14:24:57;2.30;;;1.50;;
19456;SDS011;9867;48.094;11.478;2022-12-28T14:27:24;3.07;;;2.33;;
19456;SDS011;9867;48.094;11.478;2022-12-28T14:29:52;1.90;;;1.53;;
19456;SDS011;9867;48.094;11.478;2022-12-28T14:32:20;1.73;;;1.57;;
19456;SDS011;9867;48.094;11.478;2022-12-28T14:34:47;1.70;;;1.47;;
19456;SDS011;9867;48.094;11.478;2022-12-28T14:37:24;3.83;;;1.77;;
19456;SDS011;9867;48.094;11.478;2022-12-28T14:39:54;2.17;;;1.80;;
19456;SDS011;9867;48.094;11.478;2022-12-28T14:42:25;1.53;;;1.40;;
19456;SDS011;9867;48.094;11.478;2022-12-28T14:44:53;1.67;;;1.30;;
19456;SDS011;9867;48.094;11.478;2022-12-28T14:47:42;1.63;;;1.40;;
19456;SDS011;9867;48.094;11.478;2022-12-28T14:50:14;1.47;;;1.37;;
19456;SDS011;9867;48.094;11.478;2022-12-28T14:52:43;1.80;;;1.47;;
19456;SDS011;9867;48.094;11.478;2022-12-28T14:55:21;1.63;;;1.53;;
19456;SDS011;9867;48.094;11.478;2022-12-28T14:57:50;1.60;;;1.50;;
19456;SDS011;9867;48.094;11.478;2022-12-28T15:00:22;1.70;;;1.60;;
19456;SDS011;9867;48.094;11.478;2022-12-28T15:02:51;2.90;;;1.20;;
19456;SDS011;9867;48.094;11.478;2022-12-28T15:05:38;3.17;;;1.50;;
19456;SDS011;9867;48.094;11.478;2022-12-28T15:08:06;3.77;;;1.50;;
19456;SDS011;9867;48.094;11.478;2022-12-28T15:10:35;2.23;;;1.30;;
19456;SDS011;9867;48.094;11.478;2022-12-28T15:13:05;4.77;;;1.90;;
19456;SDS011;9867;48.094;11.478;2022-12-28T15:15:32;2.60;;;1.50;;
19456;SDS011;9867;48.094;11.478;2022-12-28T15:17:59;3.40;;;1.53;;
19456;SDS011;9867;48.094;11.478;2022-12-28T15:20:25;4.57;;;1.90;;
19456;SDS011;9867;48.094;11.478;2022-12-28T15:22:52;5.20;;;3.80;;
19456;SDS011;9867;48.094;11.478;2022-12-28T15:25:18;2.50;;;2.30;;
19456;SDS011;9867;48.094;11.478;2022-12-28T15:27:47;5.80;;;3.27;;
19456;SDS011;9867;48.094;11.478;2022-12-28T15:30:14;4.73;;;4.20;;